ソルトレイクシティ の空港の天気 - METARとTAF

ソルト・レーク・シティ国際空港 ( KSLC / SLC ) - アメリカ ユタ州ソルトレイクシティ
飛行場実況気象(Metar)
観測時間01/22 17:54 MST (01/23 00:54 UTC)
風向・風速南東 4m/s
視程10km以上
天気現象
少しの雲 雲底高度 1980m
全天の8割程度の雲 雲底高度 3350m
全天の8割程度の雲 雲底高度 4570m
気温5.6℃
湿度76%
気圧1006.4hPa
METARKSLC 230054Z 14007KT 10SM FEW065 BKN110 BKN150 06/02 A2971 RMK AO2 RAE07 SLP064 SH DSNT SE-SW P0000 T00560017
過去の天気等 Google飛行場航空写真 Wunderground天気予報

過去48時間のMETAR

飛行場予報(TAF)
発表時間: 1/22 17:40 MST (1/23 00:40 UTC)
予報対象時間: 22日18時 MST ~ 23日23時 MST
風向・風速南 4m/s
視程10km以上
天気現象弱いしゅう雨
全天の4割程度の雲 雲底高度 910m
全天の8割程度の雲 雲底高度 1830m
22日19時 MST から
風向・風速南 3m/s
視程10km以上
天気現象弱い雨
全天の4割程度の雲 雲底高度 300m
全天を覆う雲 雲底高度 1070m
23日5時 MST から
風向・風速南 5m/s
視程4830m
天気現象弱い雪 もや
全天の4割程度の雲 雲底高度 210m
全天を覆う雲 雲底高度 610m
23日10時 MST から
風向・風速南 5m/s 瞬間風速 9m/s
視程10km以上
天気現象周辺でしゅう雨
全天の8割程度の雲 雲底高度 1220m
全天を覆う雲 雲底高度 1830m
23日15時 MST から
風向・風速北北西 4m/s
視程1610m
天気現象弱い雪 もや
全天の4割程度の雲 雲底高度 210m
全天の8割程度の雲 雲底高度 460m
23日21時 MST から
風向・風速西 3m/s
視程10km以上
天気現象周辺でしゅう雨
全天の4割程度の雲 雲底高度 610m
全天の8割程度の雲 雲底高度 1070m
KSLC 230040Z 2301/2406 19008KT P6SM -SHRA SCT030 BKN060
FM230200 18006KT 6SM -RA SCT010 OVC035
FM231200 18009KT 3SM -SN BR SCT007 OVC020
FM231700 18010G18KT P6SM VCSH BKN040 OVC060
FM232200 33007KT 1SM -SN BR SCT007 BKN015
FM240400 28005KT P6SM VCSH SCT020 BKN035